Time;durP1;ratioP1;P1;durP2;ratioP2;P2;SDS_P1;SDS_P2;PMS_P1;PMS_P2;Temp;Humidity;BMP_temperature;BMP_pressure;BME280_temperature;BME280_humidity;BME280_pressure;Samples;Min_cycle;Max_cycle;Signal;HPM_P1;HPM_P2
2023/05/07 00:01:37;;;;;;;9.57;3.97;;;;;;;;;;5085517;28;20040;-70
2023/05/07 00:04:03;;;;;;;9.60;4.88;;;;;;;;;;5086862;28;20063;-70
2023/05/07 00:06:29;;;;;;;7.90;4.00;;;;;;;;;;5084227;28;20042;-70
2023/05/07 00:08:55;;;;;;;8.57;4.20;;;;;;;;;;5082155;28;20088;-70
2023/05/07 00:11:21;;;;;;;11.25;4.25;;;;;;;;;;5086337;28;20036;-70
2023/05/07 00:13:47;;;;;;;10.70;4.05;;;;;;;;;;5084908;28;20553;-70
2023/05/07 00:16:13;;;;;;;9.40;3.80;;;;;;;;;;5085061;28;20032;-70
2023/05/07 00:18:38;;;;;;;7.00;3.88;;;;;;;;;;5082414;28;20089;-70
2023/05/07 00:21:04;;;;;;;9.10;4.18;;;;;;;;;;5082746;28;20036;-70
2023/05/07 00:23:29;;;;;;;8.15;3.80;;;;;;;;;;5086014;28;20044;-71
2023/05/07 00:25:54;;;;;;;9.10;4.38;;;;;;;;;;5084070;28;20111;-70
2023/05/07 00:28:20;;;;;;;7.25;4.03;;;;;;;;;;5080622;28;20167;-70
2023/05/07 00:30:45;;;;;;;6.72;3.85;;;;;;;;;;5084634;28;20122;-70
2023/05/07 00:33:11;;;;;;;6.75;3.72;;;;;;;;;;5086360;28;20024;-70
2023/05/07 00:35:36;;;;;;;9.15;3.90;;;;;;;;;;5083030;28;20667;-70
2023/05/07 00:38:01;;;;;;;12.75;4.38;;;;;;;;;;5086410;28;20489;-70
2023/05/07 00:40:27;;;;;;;6.93;4.10;;;;;;;;;;5085769;28;20683;-71
2023/05/07 00:42:56;;;;;;;7.80;4.07;;;;;;;;;;5083152;28;20063;-70
2023/05/07 00:45:22;;;;;;;9.60;4.20;;;;;;;;;;5084363;28;20028;-70
2023/05/07 00:47:48;;;;;;;10.68;4.25;;;;;;;;;;5086298;28;20039;-70
2023/05/07 00:50:13;;;;;;;9.38;4.05;;;;;;;;;;5082005;28;20032;-71
2023/05/07 00:52:39;;;;;;;6.95;4.20;;;;;;;;;;5084859;28;20032;-69
2023/05/07 00:55:06;;;;;;;6.75;4.07;;;;;;;;;;5086390;28;20394;-70
2023/05/07 00:57:40;;;;;;;7.47;4.15;;;;;;;;;;5083993;28;20081;-70
2023/05/07 01:00:08;;;;;;;9.05;4.15;;;;;;;;;;5085374;28;20041;-70
2023/05/07 01:02:34;;;;;;;8.52;4.10;;;;;;;;;;5076969;28;20041;-70
2023/05/07 01:05:00;;;;;;;8.45;4.32;;;;;;;;;;5069298;28;20137;-69
2023/05/07 01:07:27;;;;;;;8.73;4.28;;;;;;;;;;5085267;28;20527;-70
2023/05/07 01:09:52;;;;;;;10.13;4.32;;;;;;;;;;5086041;28;20043;-69
2023/05/07 01:12:18;;;;;;;8.90;4.53;;;;;;;;;;5080064;28;20095;-70
2023/05/07 01:14:43;;;;;;;5.93;4.55;;;;;;;;;;5089874;28;20034;-70
2023/05/07 01:17:09;;;;;;;8.55;4.07;;;;;;;;;;5098365;27;20035;-70
2023/05/07 01:19:35;;;;;;;7.85;4.40;;;;;;;;;;5088325;28;20043;-70
2023/05/07 01:22:08;;;;;;;8.73;4.82;;;;;;;;;;5085506;28;20602;-70
2023/05/07 01:24:34;;;;;;;;;;;;;;;;;;5080254;28;20039;-69
2023/05/07 01:27:01;;;;;;;10.90;4.65;;;;;;;;;;5088240;28;19908;-70
2023/05/07 01:29:26;;;;;;;7.47;4.35;;;;;;;;;;5089525;28;20047;-69
2023/05/07 01:31:52;;;;;;;12.20;4.38;;;;;;;;;;5078730;28;20036;-70
2023/05/07 01:34:20;;;;;;;8.15;4.20;;;;;;;;;;5089563;28;20417;-70
2023/05/07 01:36:46;;;;;;;8.57;4.60;;;;;;;;;;5083339;28;20032;-70
2023/05/07 01:39:12;;;;;;;11.07;4.70;;;;;;;;;;5080941;28;20022;-70
2023/05/07 01:41:38;;;;;;;7.63;4.55;;;;;;;;;;5077818;28;20584;-69
2023/05/07 01:44:05;;;;;;;9.65;4.95;;;;;;;;;;5085534;28;20701;-70
2023/05/07 01:46:31;;;;;;;10.32;5.05;;;;;;;;;;5102141;27;20110;-70
2023/05/07 01:48:56;;;;;;;7.30;4.35;;;;;;;;;;5087013;28;20549;-70
2023/05/07 01:51:22;;;;;;;8.32;4.90;;;;;;;;;;5088557;28;20036;-70
2023/05/07 01:53:50;;;;;;;8.05;4.90;;;;;;;;;;5088265;28;20020;-70
2023/05/07 01:56:17;;;;;;;9.00;5.15;;;;;;;;;;5086622;28;20029;-70
2023/05/07 01:58:43;;;;;;;10.23;4.88;;;;;;;;;;5084837;28;20036;-70
2023/05/07 02:01:09;;;;;;;8.25;4.90;;;;;;;;;;5088333;28;20062;-70
2023/05/07 02:03:34;;;;;;;11.52;5.20;;;;;;;;;;5088406;28;20064;-70
2023/05/07 02:05:59;;;;;;;8.80;4.88;;;;;;;;;;5089562;28;20027;-70
2023/05/07 02:08:25;;;;;;;7.55;4.70;;;;;;;;;;5085972;28;20309;-68
2023/05/07 02:10:51;;;;;;;8.23;4.82;;;;;;;;;;5085983;28;20028;-70
2023/05/07 02:13:16;;;;;;;8.20;4.60;;;;;;;;;;5088754;28;20802;-71
2023/05/07 02:15:42;;;;;;;8.05;4.60;;;;;;;;;;5088506;28;20135;-70
2023/05/07 02:18:08;;;;;;;11.35;5.10;;;;;;;;;;5087558;28;20056;-70
2023/05/07 02:20:34;;;;;;;9.23;4.78;;;;;;;;;;5086610;28;20040;-71
2023/05/07 02:23:00;;;;;;;9.02;4.80;;;;;;;;;;5089094;28;20109;-69
2023/05/07 02:25:25;;;;;;;9.15;4.65;;;;;;;;;;5085656;28;20032;-69
2023/05/07 02:27:51;;;;;;;8.55;4.60;;;;;;;;;;5088697;28;20031;-70
2023/05/07 02:30:16;;;;;;;15.60;5.80;;;;;;;;;;5085088;28;20450;-70
2023/05/07 02:32:42;;;;;;;12.23;5.25;;;;;;;;;;5080538;28;20491;-70
2023/05/07 02:35:07;;;;;;;10.48;4.88;;;;;;;;;;5087298;28;20300;-70
2023/05/07 02:37:33;;;;;;;10.63;5.03;;;;;;;;;;5087795;28;20039;-70
2023/05/07 02:39:58;;;;;;;13.38;5.25;;;;;;;;;;5074742;28;20046;-70
2023/05/07 02:42:23;;;;;;;8.38;5.20;;;;;;;;;;5083507;28;20477;-70
2023/05/07 02:44:49;;;;;;;12.45;5.53;;;;;;;;;;5085888;28;20075;-70
2023/05/07 02:47:15;;;;;;;10.27;5.28;;;;;;;;;;5088322;28;20044;-70
2023/05/07 02:49:40;;;;;;;12.23;5.47;;;;;;;;;;5087314;28;20543;-70
2023/05/07 02:52:06;;;;;;;9.68;5.07;;;;;;;;;;5087207;28;20032;-70
2023/05/07 02:54:32;;;;;;;11.80;5.53;;;;;;;;;;5088142;28;20047;-70
2023/05/07 02:56:57;;;;;;;8.95;5.18;;;;;;;;;;5087941;28;20382;-70
2023/05/07 02:59:24;;;;;;;13.77;5.03;;;;;;;;;;5082794;28;20040;-70
2023/05/07 03:01:49;;;;;;;9.32;5.10;;;;;;;;;;5086895;28;20810;-70
2023/05/07 03:04:15;;;;;;;11.85;5.53;;;;;;;;;;5086380;28;20036;-71
2023/05/07 03:06:40;;;;;;;12.63;5.18;;;;;;;;;;5082122;28;20032;-68
2023/05/07 03:09:07;;;;;;;9.82;4.68;;;;;;;;;;5088277;28;20031;-68
2023/05/07 03:11:32;;;;;;;10.63;5.57;;;;;;;;;;5086287;28;20396;-68
2023/05/07 03:13:57;;;;;;;10.27;4.85;;;;;;;;;;5079397;28;20781;-69
2023/05/07 03:16:23;;;;;;;9.52;5.20;;;;;;;;;;5079716;28;20029;-69
2023/05/07 03:18:48;;;;;;;11.73;5.30;;;;;;;;;;5087673;28;20066;-69
2023/05/07 03:21:13;;;;;;;14.77;6.03;;;;;;;;;;5087501;28;20031;-70
2023/05/07 03:23:39;;;;;;;12.23;5.57;;;;;;;;;;5088077;28;20016;-69
2023/05/07 03:26:04;;;;;;;14.70;6.20;;;;;;;;;;5086327;28;20044;-69
2023/05/07 03:28:29;;;;;;;13.32;5.55;;;;;;;;;;5082185;28;20875;-70
2023/05/07 03:30:55;;;;;;;11.88;5.70;;;;;;;;;;5081034;28;20032;-70
2023/05/07 03:33:20;;;;;;;13.98;5.80;;;;;;;;;;5081938;28;20028;-69
2023/05/07 03:35:46;;;;;;;13.95;6.38;;;;;;;;;;5087357;28;20023;-70
2023/05/07 03:38:11;;;;;;;9.93;5.32;;;;;;;;;;5084890;28;20378;-70
2023/05/07 03:40:36;;;;;;;12.18;5.80;;;;;;;;;;5084361;28;20031;-70
2023/05/07 03:43:02;;;;;;;12.98;6.15;;;;;;;;;;5082415;28;20032;-70
2023/05/07 03:45:27;;;;;;;14.75;6.25;;;;;;;;;;5085649;28;20039;-70
2023/05/07 03:47:53;;;;;;;15.90;6.13;;;;;;;;;;5086150;28;20016;-70
2023/05/07 03:50:19;;;;;;;14.43;5.72;;;;;;;;;;5082225;28;20035;-70
2023/05/07 03:52:45;;;;;;;13.60;6.13;;;;;;;;;;5081130;28;20537;-70
2023/05/07 03:55:10;;;;;;;16.05;6.25;;;;;;;;;;5086719;28;20114;-70
2023/05/07 03:57:35;;;;;;;14.38;5.47;;;;;;;;;;5087123;28;20036;-69
2023/05/07 04:00:01;;;;;;;10.63;5.65;;;;;;;;;;5086622;28;20044;-70
2023/05/07 04:02:27;;;;;;;13.82;5.50;;;;;;;;;;5085115;28;20123;-69
2023/05/07 04:04:52;;;;;;;10.18;5.85;;;;;;;;;;5085770;28;20409;-70
2023/05/07 04:07:17;;;;;;;11.15;5.55;;;;;;;;;;5085392;28;20036;-70
2023/05/07 04:09:43;;;;;;;11.02;5.30;;;;;;;;;;5086647;28;20393;-70
2023/05/07 04:12:08;;;;;;;12.60;5.88;;;;;;;;;;5086043;28;20504;-69
2023/05/07 04:14:33;;;;;;;11.38;5.15;;;;;;;;;;5086744;28;20047;-70
2023/05/07 04:16:59;;;;;;;10.27;5.40;;;;;;;;;;5086216;28;20412;-70
2023/05/07 04:19:25;;;;;;;9.90;5.30;;;;;;;;;;5084860;28;20047;-70
2023/05/07 04:21:50;;;;;;;11.00;5.70;;;;;;;;;;5086629;28;20020;-70
2023/05/07 04:24:16;;;;;;;13.32;5.57;;;;;;;;;;5075797;28;20653;-69
2023/05/07 04:26:41;;;;;;;11.75;5.43;;;;;;;;;;5081313;28;20156;-70
2023/05/07 04:29:06;;;;;;;14.32;6.22;;;;;;;;;;5085738;28;20363;-70
2023/05/07 04:31:32;;;;;;;12.57;5.90;;;;;;;;;;5080594;28;20420;-70
2023/05/07 04:33:57;;;;;;;9.52;6.10;;;;;;;;;;5081330;28;20394;-70
2023/05/07 04:36:22;;;;;;;10.63;5.88;;;;;;;;;;5083593;28;20031;-69
2023/05/07 04:38:48;;;;;;;13.75;6.25;;;;;;;;;;5078322;28;20016;-69
2023/05/07 04:41:13;;;;;;;13.27;6.57;;;;;;;;;;5080579;28;20030;-69
2023/05/07 04:43:39;;;;;;;12.80;6.30;;;;;;;;;;5084289;28;20036;-70
2023/05/07 04:46:05;;;;;;;12.48;6.63;;;;;;;;;;5086262;28;20674;-70
2023/05/07 04:48:30;;;;;;;13.20;6.45;;;;;;;;;;5084619;28;20032;-70
2023/05/07 04:50:56;;;;;;;16.08;6.43;;;;;;;;;;5089014;28;20086;-70
2023/05/07 04:53:21;;;;;;;19.85;6.45;;;;;;;;;;5088488;28;20035;-69
2023/05/07 04:55:47;;;;;;;15.05;6.30;;;;;;;;;;5090227;28;20067;-70
2023/05/07 04:58:12;;;;;;;12.68;6.35;;;;;;;;;;5090397;28;20017;-70
2023/05/07 05:00:42;;;;;;;13.30;6.30;;;;;;;;;;5088726;28;20135;-70
2023/05/07 05:03:07;;;;;;;12.85;6.45;;;;;;;;;;5090213;28;20098;-70
2023/05/07 05:05:33;;;;;;;15.55;6.45;;;;;;;;;;5091277;28;20095;-70
2023/05/07 05:07:58;;;;;;;14.07;6.95;;;;;;;;;;5085769;28;20411;-70
2023/05/07 05:10:24;;;;;;;11.52;5.97;;;;;;;;;;5084576;27;20036;-70
2023/05/07 05:12:49;;;;;;;11.02;5.65;;;;;;;;;;5086744;28;20036;-70
2023/05/07 05:15:15;;;;;;;11.68;5.75;;;;;;;;;;5090286;28;20077;-70
2023/05/07 05:17:40;;;;;;;10.15;5.70;;;;;;;;;;5090334;28;20024;-70
2023/05/07 05:20:06;;;;;;;15.13;6.25;;;;;;;;;;5089980;28;20036;-70
2023/05/07 05:22:32;;;;;;;11.00;5.90;;;;;;;;;;5086561;28;20039;-70
2023/05/07 05:24:57;;;;;;;13.38;5.90;;;;;;;;;;5084365;28;20421;-70
2023/05/07 05:27:23;;;;;;;12.55;6.10;;;;;;;;;;5089844;28;20020;-70
2023/05/07 05:29:48;;;;;;;11.20;6.20;;;;;;;;;;5089846;28;20108;-70
2023/05/07 05:32:14;;;;;;;14.00;6.53;;;;;;;;;;5087310;28;20068;-69
2023/05/07 05:34:39;;;;;;;14.27;6.22;;;;;;;;;;5088872;28;20127;-70
2023/05/07 05:37:04;;;;;;;12.90;6.05;;;;;;;;;;5086871;28;20042;-70
2023/05/07 05:39:30;;;;;;;11.18;6.22;;;;;;;;;;5084489;28;20036;-69
2023/05/07 05:41:55;;;;;;;19.90;6.38;;;;;;;;;;5086065;28;20036;-70
2023/05/07 05:44:21;;;;;;;11.40;6.40;;;;;;;;;;5083209;28;20081;-71
2023/05/07 05:46:46;;;;;;;10.05;6.72;;;;;;;;;;5089310;28;20024;-70
2023/05/07 05:49:12;;;;;;;14.10;5.82;;;;;;;;;;5088353;28;20081;-70
2023/05/07 05:51:37;;;;;;;13.30;6.72;;;;;;;;;;5086638;28;20020;-69
2023/05/07 05:54:02;;;;;;;13.30;6.00;;;;;;;;;;5088912;28;20024;-70
2023/05/07 05:56:28;;;;;;;17.33;6.57;;;;;;;;;;5088746;28;20452;-70
2023/05/07 05:58:53;;;;;;;11.95;6.03;;;;;;;;;;5088538;28;20261;-70
2023/05/07 06:01:18;;;;;;;14.50;6.35;;;;;;;;;;5081598;28;20041;-70
2023/05/07 06:03:44;;;;;;;14.02;6.72;;;;;;;;;;5076849;28;20040;-71
2023/05/07 06:06:09;;;;;;;13.40;5.97;;;;;;;;;;5075151;28;20040;-70
2023/05/07 06:08:35;;;;;;;13.57;6.50;;;;;;;;;;5088868;28;20057;-70
2023/05/07 06:11:02;;;;;;;10.00;5.63;;;;;;;;;;5091024;28;20122;-70
2023/05/07 06:13:27;;;;;;;11.05;6.32;;;;;;;;;;5086129;28;20063;-70
2023/05/07 06:15:52;;;;;;;12.57;6.22;;;;;;;;;;5078931;28;20072;-69
2023/05/07 06:18:18;;;;;;;13.10;5.82;;;;;;;;;;5088448;28;20047;-70
2023/05/07 06:20:43;;;;;;;10.55;6.35;;;;;;;;;;5069140;28;20052;-70
2023/05/07 06:23:09;;;;;;;13.73;6.57;;;;;;;;;;5097210;28;20036;-70
2023/05/07 06:25:34;;;;;;;10.38;5.68;;;;;;;;;;5086241;28;20497;-70
2023/05/07 06:27:59;;;;;;;11.32;6.35;;;;;;;;;;5081973;28;20028;-70
2023/05/07 06:30:26;;;;;;;13.40;6.90;;;;;;;;;;5086544;28;20936;-70
2023/05/07 06:32:52;;;;;;;11.48;6.63;;;;;;;;;;5081541;28;20050;-70
2023/05/07 06:35:17;;;;;;;11.93;5.90;;;;;;;;;;5085933;28;20032;-70
2023/05/07 06:37:42;;;;;;;9.82;6.13;;;;;;;;;;5078818;28;20028;-70
2023/05/07 06:40:08;;;;;;;13.82;6.20;;;;;;;;;;5081713;28;20961;-70
2023/05/07 06:42:35;;;;;;;12.82;6.07;;;;;;;;;;5085720;28;20089;-70
2023/05/07 06:45:00;;;;;;;10.77;5.95;;;;;;;;;;5085089;28;20024;-69
2023/05/07 06:47:26;;;;;;;9.98;5.55;;;;;;;;;;5087005;28;20084;-70
2023/05/07 06:49:51;;;;;;;14.32;5.50;;;;;;;;;;5085767;28;20040;-70
2023/05/07 06:52:16;;;;;;;13.05;6.10;;;;;;;;;;5086170;28;20044;-70
2023/05/07 06:54:42;;;;;;;10.88;5.68;;;;;;;;;;5075283;28;20047;-69
2023/05/07 06:57:07;;;;;;;10.85;6.28;;;;;;;;;;5083362;28;20424;-69
2023/05/07 06:59:32;;;;;;;10.35;5.93;;;;;;;;;;5072051;28;20040;-70
2023/05/07 07:01:58;;;;;;;13.32;5.97;;;;;;;;;;5085125;28;20134;-70
2023/05/07 07:04:24;;;;;;;10.70;5.80;;;;;;;;;;5095273;28;20056;-71
2023/05/07 07:06:51;;;;;;;11.35;6.07;;;;;;;;;;5077744;28;20099;-71
2023/05/07 07:09:16;;;;;;;14.00;6.28;;;;;;;;;;5085427;28;20036;-70
2023/05/07 07:11:42;;;;;;;11.10;6.22;;;;;;;;;;5085114;28;20069;-70
2023/05/07 07:14:07;;;;;;;12.90;6.55;;;;;;;;;;5084324;28;20085;-71
2023/05/07 07:16:32;;;;;;;11.23;6.18;;;;;;;;;;5078018;28;20042;-71
2023/05/07 07:18:58;;;;;;;13.65;5.65;;;;;;;;;;5074705;28;20032;-71
2023/05/07 07:21:23;;;;;;;9.95;5.45;;;;;;;;;;5073101;28;20028;-71
2023/05/07 07:23:48;;;;;;;10.38;5.80;;;;;;;;;;5066546;28;20016;-71
2023/05/07 07:26:14;;;;;;;10.02;5.32;;;;;;;;;;5080424;28;20040;-70
2023/05/07 07:28:46;;;;;;;9.23;5.65;;;;;;;;;;5083660;28;20058;-70
2023/05/07 07:31:12;;;;;;;8.60;4.93;;;;;;;;;;5075909;28;20041;-71
2023/05/07 07:33:37;;;;;;;10.02;5.22;;;;;;;;;;5074365;28;20574;-70
2023/05/07 07:36:03;;;;;;;8.55;4.97;;;;;;;;;;5076290;28;20489;-70
2023/05/07 07:38:28;;;;;;;10.13;4.75;;;;;;;;;;5074539;28;20377;-70
2023/05/07 07:40:54;;;;;;;10.20;5.00;;;;;;;;;;5069575;28;20052;-70
2023/05/07 07:43:20;;;;;;;11.57;4.72;;;;;;;;;;5077038;28;20123;-70
2023/05/07 07:45:45;;;;;;;7.60;4.65;;;;;;;;;;5065730;28;20065;-70
2023/05/07 07:48:11;;;;;;;8.05;4.65;;;;;;;;;;5073246;28;20095;-70
2023/05/07 07:50:36;;;;;;;11.95;5.18;;;;;;;;;;5062048;28;20690;-70
2023/05/07 07:53:01;;;;;;;8.75;5.03;;;;;;;;;;5072575;28;20578;-69
2023/05/07 07:55:27;;;;;;;7.95;4.90;;;;;;;;;;5070641;28;20185;-70
2023/05/07 07:57:52;;;;;;;9.13;5.07;;;;;;;;;;5074060;28;20040;-71
2023/05/07 08:00:18;;;;;;;9.95;5.70;;;;;;;;;;5066543;28;20052;-70
2023/05/07 08:02:43;;;;;;;9.85;5.65;;;;;;;;;;5071479;28;20031;-70
2023/05/07 08:05:08;;;;;;;20.70;9.35;;;;;;;;;;5071159;28;20129;-70
2023/05/07 08:07:34;;;;;;;10.32;6.43;;;;;;;;;;5077203;28;20044;-70
2023/05/07 08:09:59;;;;;;;7.72;5.28;;;;;;;;;;5072567;28;20071;-69
2023/05/07 08:12:25;;;;;;;10.02;5.43;;;;;;;;;;5070266;28;20768;-69
2023/05/07 08:14:50;;;;;;;11.63;5.63;;;;;;;;;;5071265;28;20103;-70
2023/05/07 08:17:16;;;;;;;9.50;5.20;;;;;;;;;;5084531;28;20035;-70
2023/05/07 08:19:42;;;;;;;11.55;5.50;;;;;;;;;;5068073;28;20517;-70
2023/05/07 08:22:09;;;;;;;13.00;6.15;;;;;;;;;;5073978;28;20042;-70
2023/05/07 08:24:34;;;;;;;10.27;6.05;;;;;;;;;;5072083;28;20534;-69
2023/05/07 08:26:59;;;;;;;11.60;6.25;;;;;;;;;;5076296;28;20042;-69
2023/05/07 08:29:25;;;;;;;10.88;6.63;;;;;;;;;;5082685;28;20051;-70
2023/05/07 08:31:50;;;;;;;16.38;6.85;;;;;;;;;;5078080;28;20040;-69
2023/05/07 08:34:15;;;;;;;10.07;6.90;;;;;;;;;;5080307;28;20085;-69
2023/05/07 08:36:46;;;;;;;14.27;6.95;;;;;;;;;;5082924;28;20069;-69
2023/05/07 08:39:11;;;;;;;15.02;7.40;;;;;;;;;;5081703;28;20683;-70
2023/05/07 08:41:37;;;;;;;14.48;8.30;;;;;;;;;;5082135;28;20036;-69
2023/05/07 08:44:06;;;;;;;15.73;8.63;;;;;;;;;;5083704;28;20085;-70
2023/05/07 08:46:32;;;;;;;14.32;8.15;;;;;;;;;;5084033;28;20032;-69
2023/05/07 08:48:58;;;;;;;15.63;8.25;;;;;;;;;;5079226;28;20606;-69
2023/05/07 08:51:23;;;;;;;16.60;8.82;;;;;;;;;;5076603;28;20873;-70
2023/05/07 08:53:49;;;;;;;14.57;7.97;;;;;;;;;;5075204;28;20038;-69
2023/05/07 08:56:16;;;;;;;16.77;8.32;;;;;;;;;;5082655;28;20451;-70
2023/05/07 08:58:42;;;;;;;15.55;8.25;;;;;;;;;;5081847;28;20032;-69
2023/05/07 09:01:18;;;;;;;15.82;7.95;;;;;;;;;;5077615;28;20054;-69
2023/05/07 09:03:47;;;;;;;20.42;10.45;;;;;;;;;;5083126;28;20028;-69
2023/05/07 09:06:12;;;;;;;25.63;14.30;;;;;;;;;;5083713;28;20020;-69
2023/05/07 09:08:37;;;;;;;23.05;13.07;;;;;;;;;;5074124;28;20070;-69
2023/05/07 09:11:03;;;;;;;22.27;12.38;;;;;;;;;;5080475;28;20035;-70
2023/05/07 09:13:29;;;;;;;19.83;11.60;;;;;;;;;;5083236;28;20032;-70
2023/05/07 09:15:55;;;;;;;20.27;11.35;;;;;;;;;;5075357;28;20039;-71
2023/05/07 09:18:20;;;;;;;19.30;11.00;;;;;;;;;;5076034;28;20024;-70
2023/05/07 09:20:46;;;;;;;18.70;10.90;;;;;;;;;;5077082;28;20032;-70
2023/05/07 09:23:11;;;;;;;18.15;10.75;;;;;;;;;;5084056;28;20421;-70
2023/05/07 09:25:37;;;;;;;17.40;9.85;;;;;;;;;;5083358;28;20059;-70
2023/05/07 09:28:03;;;;;;;15.50;9.55;;;;;;;;;;5082139;28;20028;-69
2023/05/07 09:30:30;;;;;;;15.48;8.60;;;;;;;;;;5083995;28;20036;-69
2023/05/07 09:32:57;;;;;;;16.00;7.85;;;;;;;;;;5081216;28;20036;-70
2023/05/07 09:35:29;;;;;;;13.80;9.13;;;;;;;;;;5073562;28;20062;-69
2023/05/07 09:37:59;;;;;;;16.40;9.40;;;;;;;;;;5082901;28;20232;-70
2023/05/07 09:40:27;;;;;;;16.45;9.10;;;;;;;;;;5086810;28;20462;-70
2023/05/07 09:42:53;;;;;;;16.85;9.05;;;;;;;;;;5086749;27;20028;-70
2023/05/07 09:45:23;;;;;;;17.23;9.18;;;;;;;;;;5081901;28;20016;-70
2023/05/07 09:47:53;;;;;;;16.70;9.25;;;;;;;;;;5071559;28;20039;-70
2023/05/07 09:50:19;;;;;;;16.08;9.15;;;;;;;;;;5075142;28;20028;-70
2023/05/07 09:52:45;;;;;;;16.13;8.90;;;;;;;;;;5085249;28;20032;-70
2023/05/07 09:55:12;;;;;;;14.98;8.57;;;;;;;;;;5085776;28;20032;-70
2023/05/07 09:57:39;;;;;;;18.23;8.90;;;;;;;;;;5081596;28;20536;-70
2023/05/07 10:00:06;;;;;;;15.23;8.63;;;;;;;;;;5087555;28;20044;-72
2023/05/07 10:02:33;;;;;;;15.70;8.68;;;;;;;;;;5086283;28;20036;-71
2023/05/07 10:05:00;;;;;;;15.52;9.98;;;;;;;;;;5084842;28;20131;-71
2023/05/07 10:07:26;;;;;;;15.55;9.00;;;;;;;;;;5085553;28;20513;-71
2023/05/07 10:09:52;;;;;;;16.58;9.02;;;;;;;;;;5074939;28;20039;-71
2023/05/07 10:12:18;;;;;;;18.27;9.55;;;;;;;;;;5084097;28;20028;-70
2023/05/07 10:14:45;;;;;;;17.00;9.55;;;;;;;;;;5086749;28;20492;-70
2023/05/07 10:17:11;;;;;;;17.00;9.48;;;;;;;;;;5086364;28;20036;-70
2023/05/07 10:19:37;;;;;;;17.27;10.25;;;;;;;;;;5081732;28;20553;-70
2023/05/07 10:22:06;;;;;;;24.67;11.80;;;;;;;;;;5074307;28;20034;-70
2023/05/07 10:24:36;;;;;;;18.95;11.15;;;;;;;;;;5070758;28;20032;-69
2023/05/07 10:27:05;;;;;;;18.63;10.30;;;;;;;;;;5081846;28;20070;-70
2023/05/07 10:29:56;;;;;;;17.00;9.57;;;;;;;;;;5085040;28;20040;-70
2023/05/07 10:32:43;;;;;;;14.27;8.50;;;;;;;;;;5074157;28;20043;-70
2023/05/07 10:35:25;;;;;;;16.38;8.90;;;;;;;;;;5075292;28;20028;-71
2023/05/07 10:37:51;;;;;;;11.18;6.90;;;;;;;;;;5085421;28;20044;-71
2023/05/07 10:40:19;;;;;;;11.00;6.63;;;;;;;;;;5072206;28;20511;-70
2023/05/07 10:42:59;;;;;;;13.45;6.82;;;;;;;;;;5084247;28;20072;-70
2023/05/07 10:45:25;;;;;;;10.88;6.78;;;;;;;;;;5081709;28;20031;-70
2023/05/07 10:48:12;;;;;;;10.68;6.65;;;;;;;;;;5072621;28;20016;-70
2023/05/07 10:50:38;;;;;;;11.13;6.95;;;;;;;;;;5080906;28;20612;-70
2023/05/07 10:53:19;;;;;;;10.80;6.82;;;;;;;;;;5085368;28;20055;-70
2023/05/07 10:55:49;;;;;;;8.90;6.50;;;;;;;;;;5084470;28;20520;-70
2023/05/07 10:58:28;;;;;;;11.15;7.45;;;;;;;;;;5082720;28;20028;-70
2023/05/07 11:00:58;;;;;;;10.35;6.70;;;;;;;;;;5078927;28;20062;-70
2023/05/07 11:03:27;;;;;;;12.50;7.25;;;;;;;;;;5082849;28;20019;-70
2023/05/07 11:06:09;;;;;;;9.73;6.30;;;;;;;;;;5079231;28;20027;-70
2023/05/07 11:08:53;;;;;;;9.02;6.00;;;;;;;;;;5084215;28;20036;-70
2023/05/07 11:11:47;;;;;;;13.77;8.30;;;;;;;;;;5084507;28;20406;-70
2023/05/07 11:14:14;;;;;;;25.83;14.57;;;;;;;;;;5085730;28;20615;-70
2023/05/07 11:16:41;;;;;;;10.13;6.18;;;;;;;;;;5084434;28;20211;-70
2023/05/07 11:19:06;;;;;;;8.60;6.05;;;;;;;;;;5082117;28;20059;-70
2023/05/07 11:21:35;;;;;;;9.93;6.32;;;;;;;;;;5083824;28;20527;-70
2023/05/07 11:24:01;;;;;;;8.38;5.65;;;;;;;;;;5079448;28;20028;-70
2023/05/07 11:26:29;;;;;;;7.95;5.70;;;;;;;;;;5076204;28;20032;-69
2023/05/07 11:28:54;;;;;;;8.40;6.10;;;;;;;;;;5084776;28;20044;-70
2023/05/07 11:31:26;;;;;;;8.75;5.88;;;;;;;;;;5078654;28;20040;-70
2023/05/07 11:33:53;;;;;;;9.32;6.30;;;;;;;;;;5076462;28;20721;-70
2023/05/07 11:36:20;;;;;;;8.05;5.65;;;;;;;;;;5085458;28;20523;-69
2023/05/07 11:38:46;;;;;;;8.40;5.30;;;;;;;;;;5077803;28;20009;-70
2023/05/07 11:41:11;;;;;;;9.90;6.07;;;;;;;;;;5073838;28;20040;-69
2023/05/07 11:43:37;;;;;;;8.40;5.13;;;;;;;;;;5079537;28;20036;-69
2023/05/07 11:46:10;;;;;;;7.22;5.30;;;;;;;;;;5083506;28;20075;-69
2023/05/07 11:48:36;;;;;;;8.13;5.43;;;;;;;;;;5083857;28;20061;-69
2023/05/07 11:51:05;;;;;;;7.32;5.20;;;;;;;;;;5079560;28;20032;-70
2023/05/07 11:53:41;;;;;;;6.90;5.05;;;;;;;;;;5083449;28;20097;-70
2023/05/07 11:56:18;;;;;;;4.40;3.53;;;;;;;;;;5081438;28;20059;-69
2023/05/07 11:58:45;;;;;;;5.50;4.50;;;;;;;;;;5082648;28;20032;-69
2023/05/07 12:01:12;;;;;;;7.65;4.38;;;;;;;;;;5081422;28;20240;-69
2023/05/07 12:03:44;;;;;;;7.22;4.13;;;;;;;;;;5086871;28;20032;-70
2023/05/07 12:06:11;;;;;;;6.30;4.20;;;;;;;;;;5084449;28;20032;-70
2023/05/07 12:08:38;;;;;;;7.47;3.95;;;;;;;;;;5083223;28;20028;-68
2023/05/07 12:11:07;;;;;;;8.35;4.47;;;;;;;;;;5077598;28;20040;-69
2023/05/07 12:13:33;;;;;;;6.45;4.20;;;;;;;;;;5074829;28;20043;-69
2023/05/07 12:15:58;;;;;;;7.80;4.38;;;;;;;;;;5072235;28;20044;-70
2023/05/07 12:18:24;;;;;;;6.60;4.35;;;;;;;;;;5076020;28;20024;-69
2023/05/07 12:20:50;;;;;;;4.72;4.13;;;;;;;;;;5073158;28;20030;-69
2023/05/07 12:23:16;;;;;;;9.20;3.75;;;;;;;;;;5069344;28;20228;-69
2023/05/07 12:25:46;;;;;;;5.82;4.28;;;;;;;;;;5073385;28;20035;-69
2023/05/07 12:28:16;;;;;;;6.88;3.97;;;;;;;;;;5070150;28;20036;-69
2023/05/07 12:30:43;;;;;;;5.43;3.88;;;;;;;;;;5068496;28;20535;-69
2023/05/07 12:33:08;;;;;;;6.60;3.63;;;;;;;;;;5067988;28;20023;-68
2023/05/07 12:35:40;;;;;;;5.88;3.78;;;;;;;;;;5070697;28;20105;-69
2023/05/07 12:38:10;;;;;;;5.68;4.20;;;;;;;;;;5072759;28;20034;-69
2023/05/07 12:40:40;;;;;;;5.65;4.28;;;;;;;;;;5073109;28;20041;-69
2023/05/07 12:43:06;;;;;;;5.90;4.20;;;;;;;;;;5074458;28;20040;-69
2023/05/07 12:45:31;;;;;;;6.85;3.85;;;;;;;;;;5086596;28;20043;-69
2023/05/07 12:48:02;;;;;;;4.63;3.22;;;;;;;;;;5092929;28;20024;-69
2023/05/07 12:50:31;;;;;;;4.70;3.00;;;;;;;;;;5084196;28;20512;-69
2023/05/07 12:52:57;;;;;;;4.90;3.40;;;;;;;;;;5074098;28;20040;-70
2023/05/07 12:55:22;;;;;;;6.43;3.78;;;;;;;;;;5074028;28;20035;-69
2023/05/07 12:57:50;;;;;;;6.63;4.15;;;;;;;;;;5072026;28;20111;-70
2023/05/07 13:00:16;;;;;;;6.10;4.03;;;;;;;;;;5075225;28;20119;-69
2023/05/07 13:02:44;;;;;;;4.32;3.65;;;;;;;;;;5074484;28;20157;-70
2023/05/07 13:05:09;;;;;;;4.80;3.60;;;;;;;;;;5069997;28;20154;-69
2023/05/07 13:07:36;;;;;;;12.95;6.45;;;;;;;;;;5071310;28;20540;-69
2023/05/07 13:10:02;;;;;;;7.20;4.15;;;;;;;;;;5070529;28;20048;-70
2023/05/07 13:12:28;;;;;;;5.57;3.47;;;;;;;;;;5074771;28;20036;-69
2023/05/07 13:14:53;;;;;;;6.80;3.45;;;;;;;;;;5074817;28;20695;-69
2023/05/07 13:17:18;;;;;;;5.65;3.58;;;;;;;;;;5078886;28;20036;-69
2023/05/07 13:19:44;;;;;;;4.53;3.50;;;;;;;;;;5074035;28;20036;-70
2023/05/07 13:22:09;;;;;;;4.85;2.90;;;;;;;;;;5071679;28;20123;-69
2023/05/07 13:24:35;;;;;;;4.18;3.33;;;;;;;;;;5086665;28;20085;-69
2023/05/07 13:27:00;;;;;;;5.82;3.60;;;;;;;;;;5084968;28;20440;-68
2023/05/07 13:29:29;;;;;;;4.20;3.30;;;;;;;;;;5085530;28;20576;-68
2023/05/07 13:31:56;;;;;;;5.45;3.67;;;;;;;;;;5079859;28;20516;-69
2023/05/07 13:34:22;;;;;;;12.52;6.25;;;;;;;;;;5068148;28;20063;-70
2023/05/07 13:36:47;;;;;;;38.15;17.65;;;;;;;;;;5095502;28;20440;-69
2023/05/07 13:39:13;;;;;;;21.17;10.68;;;;;;;;;;5075429;28;20021;-69
2023/05/07 13:41:38;;;;;;;12.35;7.35;;;;;;;;;;5079387;28;20027;-68
2023/05/07 13:44:04;;;;;;;6.32;4.60;;;;;;;;;;5077020;28;20048;-70
2023/05/07 13:46:30;;;;;;;5.63;3.83;;;;;;;;;;5070849;28;20036;-70
2023/05/07 13:48:55;;;;;;;8.73;4.95;;;;;;;;;;5071553;28;20045;-70
2023/05/07 13:51:21;;;;;;;16.42;7.38;;;;;;;;;;5075789;28;20028;-69
2023/05/07 13:53:46;;;;;;;4.82;3.63;;;;;;;;;;5081025;28;20074;-71
2023/05/07 13:56:12;;;;;;;5.07;3.85;;;;;;;;;;5071498;28;20123;-70
2023/05/07 13:58:37;;;;;;;6.55;4.10;;;;;;;;;;5074675;28;20032;-69
2023/05/07 14:01:03;;;;;;;5.60;3.88;;;;;;;;;;5081938;28;20072;-70
2023/05/07 14:03:29;;;;;;;5.43;3.80;;;;;;;;;;5087754;28;20108;-70
2023/05/07 14:05:55;;;;;;;6.20;3.88;;;;;;;;;;5088269;28;20028;-69
2023/05/07 14:08:20;;;;;;;5.60;3.42;;;;;;;;;;5088988;28;20046;-68
2023/05/07 14:10:46;;;;;;;6.70;4.25;;;;;;;;;;5090778;28;20055;-69
2023/05/07 14:13:11;;;;;;;8.05;4.45;;;;;;;;;;5092661;28;20032;-70
2023/05/07 14:15:37;;;;;;;8.02;4.50;;;;;;;;;;5087251;28;20111;-70
2023/05/07 14:18:02;;;;;;;9.75;5.13;;;;;;;;;;5087522;28;20483;-70
2023/05/07 14:20:28;;;;;;;6.43;4.40;;;;;;;;;;5087764;28;20032;-70
2023/05/07 14:22:53;;;;;;;5.03;3.70;;;;;;;;;;5087399;28;20036;-69
2023/05/07 14:25:19;;;;;;;6.10;4.13;;;;;;;;;;5086234;28;20381;-70
2023/05/07 14:27:44;;;;;;;6.10;4.30;;;;;;;;;;5083995;28;20035;-70
2023/05/07 14:30:10;;;;;;;5.70;4.07;;;;;;;;;;5073813;28;20068;-70
2023/05/07 14:32:35;;;;;;;5.22;4.00;;;;;;;;;;5077099;28;20420;-71